Tiempo atmosférico en la estación meteorológica de Mora, Toledo (717 m.)



Fecha
DESCASC
Temp. máxima en grados centígrados (hora)
DESCASC
Temp. mínima en grados centígrados (hora)
DESCASC
Temp. media en grados centígrados
DESCASC
Racha de viento máxima en m/sg (hora)
DESCASC
Velocidad máxima media en intervalos de 10 minutos(hora)
DESCASC
Precipitaciones diarias en mm
DESCASC
Precipitaciones de 00:00 a 06:00 en mm
DESCASC
Precipitaciones de 06:00 a 12:00 en mm
DESCASC
Precipitaciones de 12:00 a 18:00 en mm
DESCASC
Precipitaciones de 18:00 a 24:00 en mm
DESCASC
16-01-2020 15.4 (15:40) 7.4 (00:00) 11.4 9.17 (16:20) 5.28 (16:00) 0 0 0 0 0
15-01-2020 12 (14:00) 2 (06:00) 7 7.22 (12:50) 4.17 (13:30) 0 0 0 0 0
14-01-2020 11.3 (16:20) -1.9 (04:10) 4.7 4.17 (16:00) 2.78 (16:00) 0 0 0 0 0
13-01-2020 11.7 (13:40) -2.8 (07:10) 4.4 5.83 (14:30) 3.06 (14:20) 0 0 0 0 0
12-01-2020 11.6 (12:40) -2.6 (08:20) 4.5 4.17 (16:00) 2.5 (16:00) 0 0 0 0 0
11-01-2020 11.8 (15:50) -1.8 (-00:0) 5 2.78 (14:10) 1.67 (21:40) 0 0 0 0 0
10-01-2020 10.7 (15:40) 2 (00:00) 6.3 8.61 (13:00) 5 (15:50) 0 0 0 0 0
09-01-2020 14.4 (16:10) 0.7 (00:00) 7.5 6.67 (00:10) 3.06 (00:20) 0 0 0 0 0
08-01-2020 16.9 (16:20) -0.1 (00:00) 8.4 6.11 (23:20) 3.33 (23:20) 0 0 0 0 0
07-01-2020 16.7 (15:20) -0.9 (-00:0) 7.9 2.78 (06:50) 1.94 (02:10) 0 0 0 0 0
06-01-2020 14.7 (17:00) -1.7 (-00:0) 6.5 2.78 (15:40) 1.67 (15:50) 0 0 0 0 0
05-01-2020 13.9 (16:00) -1.4 (-00:0) 6.2 3.06 (13:10) 1.67 (13:10) 0 0 0 0 0
04-01-2020 10.3 (16:30) 0.1 (00:00) 5.2 5.56 (13:30) 3.33 (13:10) 0 0 0 0 0
03-01-2020 7.8 (17:10) 0.8 (00:00) 4.3 4.17 (16:00) 2.5 (16:00) 0 0 0 0 0
02-01-2020 14 (16:40) -1.3 (-00:0) 6.4 3.06 (03:00) 1.94 (02:50) 0 0 0 0 0
01-01-2020 15 (13:50) -0.7 (-00:0) 7.2 3.89 (06:30) 2.22 (16:10) 0 0 0 0 0
31-12-2019 -- (--) -- (--) -- -- (--) -- (--) 0 0 0 0 0
30-12-2019 -- (--) -- (--) -- -- (--) -- (--) 0 0 0 0 0
29-12-2019 15.9 (16:00) 2.7 (00:00) 9.3 4.72 (02:30) 2.5 (02:30) 0 0 0 0 0
28-12-2019 16.7 (13:20) 0.3 (00:00) 8.5 4.17 (15:30) 2.5 (15:20) 0 0 0 0 0
27-12-2019 13.8 (15:40) 1.3 (00:00) 7.6 4.17 (15:00) 2.5 (15:00) 0 0 0 0 0
26-12-2019 15.4 (12:00) 4.8 (00:00) 10.1 3.33 (12:10) 2.5 (00:50) 0 0 0 0 0
25-12-2019 20.4 (16:40) 2.9 (00:00) 11.6 2.78 (10:20) 1.67 (12:30) 0 0 0 0 0
24-12-2019 17.7 (13:50) 3.1 (08:00) 10.4 3.06 (14:00) 2.22 (14:00) 0 0 0 0 0
23-12-2019 15.7 (15:50) 3.5 (00:00) 9.6 3.61 (21:50) 1.94 (21:50) 0 0 0 0 0
22-12-2019 13.6 (12:40) 9.4 (23:50) 11.5 20 (02:10) 11.11 (02:10) 0.4 0.2 0.2 0 0
21-12-2019 16.9 (14:50) 10.9 (23:59) 13.9 21.11 (20:00) 12.22 (20:00) 5 2.6 0.6 1.6 0.2
20-12-2019 14.4 (12:50) 11.9 (00:00) 13.1 19.44 (02:30) 10.83 (02:10) 16 5.2 1.8 1.6 7.4
19-12-2019 13.9 (23:50) 8.6 (00:50) 11.3 16.11 (23:59) 8.61 (23:50) 9.8 0.2 1 6.6 2

Gráficas

Temp. máximas Temp. mínimas Temp. medias Precipitaciones Rachas de viento máximas Velocidades máximas media en intervalos de 10 minutos

Datos horarios

Fecha y hora oficial Temperatura (ºC) Velocidad del viento (km/h) Dirección del viento Racha (km/h) Dirección de racha Precipitación (mm) Presión (hPa) Tendencia (hPa) Humedad (%)
2020-01-17 23:00:00 6.1 5 Sudeste 9 Sur 0 -- -- 90
2020-01-17 22:00:00 7 3 Sur 9 Sudoeste 0 -- -- 90
2020-01-17 21:00:00 6.6 2 Sudoeste 6 Sudeste 0 -- -- 87
2020-01-17 20:00:00 7.2 3 Sur 6 Sur 0 -- -- 84
2020-01-17 19:00:00 7.9 0 Calma 13 Oeste 0 -- -- 83
2020-01-17 18:00:00 10.5 7 Oeste 18 Noroeste 0 -- -- 73
2020-01-17 17:00:00 12.3 9 Oeste 19 Oeste 0 -- -- 65
2020-01-17 16:00:00 11.6 12 Oeste 23 Oeste 0 -- -- 65
2020-01-17 15:00:00 12.3 15 Oeste 31 Oeste 0 -- -- 64
2020-01-17 14:00:00 11.5 18 Oeste 29 Oeste 0 -- -- 66
2020-01-17 13:00:00 11.6 14 Oeste 26 Sur 0 -- -- 65
2020-01-17 12:00:00 10.3 6 Noroeste 12 Noroeste 0 -- -- 73
2020-01-17 11:00:00 9 3 Sudoeste 14 Sudoeste 0 -- -- 79
2020-01-17 10:00:00 7.6 6 Sudoeste 13 Sudoeste 0 -- -- 83
2020-01-17 09:00:00 5.9 5 Sudoeste 12 Sur 0 -- -- 86
2020-01-17 08:00:00 6.6 6 Sudoeste 14 Sudoeste 0 -- -- 81
2020-01-17 07:00:00 6.9 8 Sudoeste 16 Sudoeste 0 -- -- 78
2020-01-17 06:00:00 6.4 6 Sudoeste 15 Sudoeste 0 -- -- 79
2020-01-17 05:00:00 7.4 10 Sudoeste 21 Sudoeste 0 -- -- 73
2020-01-17 04:00:00 7.7 8 Sur 17 Sudoeste 0 -- -- 70
2020-01-17 03:00:00 9.2 9 Sudoeste 25 Sudoeste 0 -- -- 57
2020-01-17 02:00:00 9.7 8 Sudoeste 24 Sudoeste 0 -- -- 53
2020-01-17 01:00:00 9.1 4 Sur 18 Sur 0 -- -- 56
2020-01-17 00:00:00 8.2 0 Calma 20 Sur 0 -- -- 59
2020-01-16 23:00:00 9.4 10 Sur 20 Sur 0 -- -- 53
2020-01-16 22:00:00 10 10 Sur 19 Sudoeste 0 -- -- 51
2020-01-16 21:00:00 9.7 8 Sur 15 Sur 0 -- -- 54
2020-01-16 20:00:00 9.3 7 Sur 13 Sur 0 -- -- 54
2020-01-16 19:00:00 9.6 5 Sudeste 15 Sudoeste 0 -- -- 52
2020-01-16 18:00:00 12.3 8 Sudoeste 23 Sudoeste 0 -- -- 45
2020-01-16 17:00:00 14.5 11 Sudoeste 33 Sudoeste 0 -- -- 39
2020-01-16 16:00:00 14.9 19 Sudoeste 32 Sudoeste 0 -- -- 37
2020-01-16 15:00:00 15.1 15 Sudoeste 25 Sudoeste 0 -- -- 37
2020-01-16 14:00:00 15 14 Sudoeste 27 Sudoeste 0 -- -- 42
2020-01-16 13:00:00 13.3 12 Sudoeste 26 Sudoeste 0 -- -- 52
2020-01-16 12:00:00 12.4 8 Sudeste 17 Sudeste 0 -- -- 67
2020-01-16 11:00:00 10.7 8 Sur 15 Sur 0 -- -- 77
2020-01-16 10:00:00 9.2 6 Sudeste 13 Sudeste 0 -- -- 87
2020-01-16 09:00:00 8.1 4 Sur 12 Sudeste 0 -- -- 92
2020-01-16 08:00:00 7.8 6 Sudeste 14 Sudeste 0 -- -- 91
2020-01-16 07:00:00 7.8 6 Sudeste 15 Sudeste 0 -- -- 92
2020-01-16 06:00:00 7.8 6 Sur 12 Sudeste 0 -- -- 90
2020-01-16 05:00:00 7.6 5 Sur 12 Sudeste 0 -- -- 89
2020-01-16 04:00:00 7.9 6 Sur 11 Sur 0 -- -- 87
2020-01-16 03:00:00 8.3 6 Sudeste 12 Sudeste 0 -- -- 86
2020-01-16 02:00:00 8 8 Sudeste 13 Sudeste 0 -- -- 87
2020-01-16 01:00:00 7.6 5 Sudeste 10 Sudoeste 0 -- -- 88
2020-01-16 00:00:00 7.4 4 Sur 13 Sur 0 -- -- 88
2020-01-15 23:00:00 7.9 7 Sur 13 Sur 0 -- -- 86
2020-01-15 22:00:00 8.2 3 Sur 8 Sudeste 0 -- -- 85
2020-01-15 21:00:00 8.1 5 Sudeste 9 Sudeste 0 -- -- 85
2020-01-15 20:00:00 7.7 2 Sudeste 8 Sudeste 0 -- -- 86
2020-01-15 19:00:00 8.1 2 Nordeste 7 Este 0 -- -- 84
2020-01-15 18:00:00 9.4 2 Norte 8 Sudoeste 0 -- -- 79
2020-01-15 17:00:00 11 4 Sudoeste 11 Oeste 0 -- -- 73
2020-01-15 16:00:00 11.1 6 Oeste 17 Sudoeste 0 -- -- 70
2020-01-15 15:00:00 11.3 9 Sudoeste 22 Sudoeste 0 -- -- 68
2020-01-15 14:00:00 12 10 Sudoeste 26 Sudoeste 0 -- -- 66
2020-01-15 13:00:00 11 15 Sudoeste 26 Sudoeste 0 -- -- 68
2020-01-15 12:00:00 9.1 8 Sudoeste 21 Sudoeste 0 -- -- 71
2020-01-15 11:00:00 8.2 12 Sur 23 Sur 0 -- -- 77
2020-01-15 10:00:00 5.9 10 Sur 21 Sur 0 -- -- 88
2020-01-15 09:00:00 3.6 11 Sur 21 Sur 0 -- -- 92
2020-01-15 08:00:00 3.1 5 Sur 10 Sudeste 0 -- -- 93
2020-01-15 07:00:00 2 4 Nordeste 10 Noroeste 0 -- -- 94
2020-01-15 06:00:00 2 0 Calma 5 Sur 0 -- -- 91
2020-01-15 05:00:00 4.6 3 Sudeste 11 Sur 0 -- -- 88
2020-01-15 04:00:00 4 4 Sur 14 Sudeste 0 -- -- 91
2020-01-15 03:00:00 3.8 5 Sudeste 8 Sur 0 -- -- 88
2020-01-15 02:00:00 4.8 3 Sudeste 8 Sudoeste 0 -- -- 85
2020-01-15 01:00:00 4.6 3 Sudeste 10 Sur 0 -- -- 86
2020-01-15 00:00:00 5.1 4 Sudeste 11 Sur 0 -- -- 84
2020-01-14 23:00:00 5.1 3 Sur 7 Sur 0 -- -- 85
2020-01-14 22:00:00 4.7 3 Sudeste 8 Sudeste 0 -- -- 84
2020-01-14 21:00:00 3.8 0 Calma 8 Sur 0 -- -- 85
2020-01-14 20:00:00 5.1 4 Sur 10 Sur 0 -- -- 78
2020-01-14 19:00:00 6.3 3 Sur 8 Sudeste 0 -- -- 72
2020-01-14 18:00:00 8.6 3 Sur 12 Sudoeste 0 -- -- 62
2020-01-14 17:00:00 10.1 5 Sudoeste 13 Sudoeste 0 -- -- 56
2020-01-14 16:00:00 10.9 10 Oeste 15 Oeste 0 -- -- 53
2020-01-14 15:00:00 11 4 Noroeste 12 Sudoeste 0 -- -- 55
2020-01-14 14:00:00 10.6 3 Sudoeste 10 Oeste 0 -- -- 56
2020-01-14 13:00:00 10.1 2 Sudeste 6 Nordeste 0 -- -- 57
2020-01-14 12:00:00 9.2 0 Calma 6 Sudoeste 0 -- -- 59
2020-01-14 11:00:00 7.4 3 Sur 8 Sur 0 -- -- 68
2020-01-14 10:00:00 1.2 5 Sur 10 Sur 0 -- -- 90
2020-01-14 09:00:00 -1.1 5 Sur 9 Sur 0 -- -- 91
2020-01-14 08:00:00 -1.5 5 Sur 9 Sudeste 0 -- -- 90
2020-01-14 07:00:00 -1.2 4 Sur 9 Sur 0 -- -- 90
2020-01-14 06:00:00 -1.4 4 Sur 8 Sur 0 -- -- 89
2020-01-14 05:00:00 -0.9 5 Sur 9 Sur 0 -- -- 89
2020-01-14 04:00:00 -1.6 5 Sur 9 Sudeste 0 -- -- 90
2020-01-14 03:00:00 -1.2 4 Sur 8 Sudeste 0 -- -- 90
2020-01-14 02:00:00 -0.4 5 Sur 8 Sur 0 -- -- 87
2020-01-14 01:00:00 -0.3 0 Calma 5 Sur 0 -- -- 87
2020-01-14 00:00:00 0.8 3 Sur 8 Sur 0 -- -- 84
2020-01-13 23:00:00 1.2 0 Calma 4 Sudoeste 0 -- -- 87
2020-01-13 22:00:00 1.7 2 Sudoeste 9 Sur 0 -- -- 82
2020-01-13 21:00:00 2.1 5 Sudeste 9 Sudeste 0 -- -- 84
2020-01-13 20:00:00 1.9 0 Calma 4 Sur 0 -- -- 82
2020-01-13 19:00:00 4.9 0 Calma 8 Norte 0 -- -- 73
2020-01-13 18:00:00 8 0 Calma 4 Sudoeste 0 -- -- 62
2020-01-13 17:00:00 9.4 4 Sudoeste 9 Oeste 0 -- -- 55
2020-01-13 16:00:00 9.2 5 Noroeste 12 Norte 0 -- -- 55
2020-01-13 15:00:00 9.7 8 Norte 21 Norte 0 -- -- 56
2020-01-13 14:00:00 10.8 4 Noroeste 11 Noroeste 0 -- -- 53
2020-01-13 13:00:00 10.4 0 Calma 7 Este 0 -- -- 52
2020-01-13 12:00:00 9 0 Calma 6 Sudeste 0 -- -- 60
2020-01-13 11:00:00 5.3 4 Sur 8 Sur 0 -- -- 73
2020-01-13 10:00:00 2.1 6 Sur 15 Sur 0 -- -- 84
2020-01-13 09:00:00 -0.1 8 Sur 14 Sudeste 0 -- -- 88
2020-01-13 08:00:00 -2.1 4 Sur 9 Sur 0 -- -- 91
2020-01-13 07:00:00 -2.4 5 Sur 9 Sur 0 -- -- 89
2020-01-13 06:00:00 -2.1 4 Sur 10 Sur 0 -- -- 90
2020-01-13 05:00:00 -1.4 6 Sur 10 Sudeste 0 -- -- 88
2020-01-13 04:00:00 -1.3 4 Sur 9 Sur 0 -- -- 88
2020-01-13 03:00:00 0.4 0 Calma 6 Sur 0 -- -- 83
2020-01-13 02:00:00 -0.1 4 Sudeste 9 Sudeste 0 -- -- 86
2020-01-13 01:00:00 -0.3 5 Sur 10 Sudeste 0 -- -- 85
2020-01-13 00:00:00 -0.2 3 Sur 10 Sur 0 -- -- 84
2020-01-12 23:00:00 0.3 6 Sur 10 Sur 0 -- -- 83
2020-01-12 22:00:00 1.6 3 Sur 6 Sur 0 -- -- 78
2020-01-12 21:00:00 1.5 0 Calma 4 Sudeste 0 -- -- 80
2020-01-12 20:00:00 2.7 0 Calma 2 Sudeste 0 -- -- 75
2020-01-12 19:00:00 4.7 0 Calma 4 Noroeste 0 -- -- 68
2020-01-12 18:00:00 7.9 3 Noroeste 12 Noroeste 0 -- -- 57
2020-01-12 17:00:00 10.2 8 Noroeste 14 Noroeste 0 -- -- 49
2020-01-12 16:00:00 10.8 9 Noroeste 15 Noroeste 0 -- -- 51
2020-01-12 15:00:00 10.8 5 Noroeste 13 Noroeste 0 -- -- 53
2020-01-12 14:00:00 10.6 8 Noroeste 14 Noroeste 0 -- -- 51
2020-01-12 13:00:00 10.8 3 Noroeste 8 Oeste 0 -- -- 51
2020-01-12 12:00:00 10.4 0 Calma 4 Oeste 0 -- -- 53
2020-01-12 11:00:00 9.3 0 Calma 3 Sudeste 0 -- -- 61
2020-01-12 10:00:00 0.4 0 Calma 5 Sur 0 -- -- 88
2020-01-12 09:00:00 -2.2 2 Sur 10 Sur 0 -- -- 91
2020-01-12 08:00:00 -2.3 3 Sur 8 Sur 0 -- -- 89
2020-01-12 07:00:00 -1.7 2 Sudeste 6 Sudeste 0 -- -- 89
2020-01-12 06:00:00 -1.7 2 Sur 5 Sur 0 -- -- 89
2020-01-12 05:00:00 -1.5 0 Calma 6 Sur 0 -- -- 88
2020-01-12 04:00:00 -0.9 3 Sur 9 Sur 0 -- -- 86
2020-01-12 03:00:00 -0.8 2 Sur 4 Sur 0 -- -- 87
2020-01-12 02:00:00 -0.5 0 Calma 9 Sur 0 -- -- 86
2020-01-12 01:00:00 -0.1 3 Sur 6 Sudeste 0 -- -- 88
2020-01-12 00:00:00 0.6 3 Sur 8 Sur 0 -- -- 87
2020-01-11 23:00:00 1.2 2 Sur 5 Sur 0 -- -- 87
2020-01-11 22:00:00 1.7 5 Sur 9 Sur 0 -- -- 83
2020-01-11 21:00:00 3.1 3 Sur 7 Sur 0 -- -- 79
2020-01-11 20:00:00 4.2 4 Sur 5 Sur 0 -- -- 75
2020-01-11 19:00:00 4.8 0 Calma 4 Norte 0 -- -- 71
2020-01-11 18:00:00 8.3 3 Norte 4 Norte 0 -- -- 60
2020-01-11 17:00:00 11.6 2 Noroeste 6 Sudoeste 0 -- -- 49
2020-01-11 16:00:00 11.5 4 Norte 9 Norte 0 -- -- 52
2020-01-11 15:00:00 10.6 3 Norte 10 Norte 0 -- -- 51
2020-01-11 14:00:00 8.7 4 Noroeste 8 Noroeste 0 -- -- 60
2020-01-11 13:00:00 8.6 2 Norte 6 Noroeste 0 -- -- 61
2020-01-11 12:00:00 7.7 0 Calma 4 Nordeste 0 -- -- 62
2020-01-11 11:00:00 4.7 0 Calma 4 Sudeste 0 -- -- 72
2020-01-11 10:00:00 0.7 0 Calma 4 Sudeste 0 -- -- 87
2020-01-11 09:00:00 -1.7 0 Calma 5 Sudeste 0 -- -- 90
2020-01-11 08:00:00 -1.2 0 Calma 4 Sudeste 0 -- -- 89
2020-01-11 07:00:00 -0.3 0 Calma 5 Sur 0 -- -- 88
2020-01-11 06:00:00 -0.4 3 Sudeste 5 Sudoeste 0 -- -- 87
2020-01-11 05:00:00 -0.3 2 Sudoeste 3 Sudoeste 0 -- -- 88
2020-01-11 04:00:00 0.4 0 Calma 6 Norte 0 -- -- 88
2020-01-11 03:00:00 -0.1 4 Norte 5 Norte 0 -- -- 88
2020-01-11 02:00:00 0.6 0 Calma 6 Oeste 0 -- -- 84
2020-01-11 01:00:00 1.2 4 Sudoeste 6 Oeste 0 -- -- 83
2020-01-11 00:00:00 2.2 0 Calma 5 Noroeste 0 -- -- 79
2020-01-10 23:00:00 3.4 4 Norte 10 Norte 0 -- -- 73
2020-01-10 22:00:00 3.6 3 Norte 10 Oeste 0 -- -- 71
2020-01-10 21:00:00 5.3 2 Noroeste 6 Norte 0 -- -- 65
2020-01-10 20:00:00 5.7 4 Nordeste 14 Norte 0 -- -- 63
2020-01-10 19:00:00 6.9 9 Norte 21 Norte 0 -- -- 58
2020-01-10 18:00:00 8.4 11 Norte 23 Norte 0 -- -- 52
2020-01-10 17:00:00 10.4 17 Nordeste 31 Norte 0 -- -- 45
2020-01-10 16:00:00 10.5 16 Norte 30 Norte 0 -- -- 47
2020-01-10 15:00:00 9.9 17 Norte 27 Norte 0 -- -- 54
2020-01-10 14:00:00 9 15 Norte 27 Norte 0 -- -- 58
2020-01-10 13:00:00 8.6 16 Norte 31 Norte 0 -- -- 62
2020-01-10 12:00:00 8 12 Norte 21 Norte 0 -- -- 63
2020-01-10 11:00:00 7.1 7 Norte 13 Norte 0 -- -- 69
2020-01-10 10:00:00 3.9 3 Sur 5 Sur 0 -- -- 82
2020-01-10 09:00:00 2 0 Calma 6 Noroeste 0 -- -- 85
2020-01-10 08:00:00 2.2 0 Calma 6 Oeste 0 -- -- 84
2020-01-10 07:00:00 3 2 Sudoeste 5 Sudoeste 0 -- -- 83
2020-01-10 06:00:00 3.6 2 Oeste 10 Noroeste 0 -- -- 82
2020-01-10 05:00:00 5.1 8 Noroeste 18 Noroeste 0 -- -- 78
2020-01-10 04:00:00 4.9 7 Noroeste 11 Noroeste 0 -- -- 86
2020-01-10 03:00:00 6.4 5 Oeste 17 Oeste 0 -- -- 86
2020-01-10 02:00:00 5.7 9 Oeste 15 Oeste 0 -- -- 92
2020-01-10 01:00:00 5.5 2 Noroeste 12 Sur 0 -- -- 89
2020-01-10 00:00:00 5.3 4 Sudeste 11 Sur 0 -- -- 86
2020-01-09 23:00:00 4.9 8 Sudeste 13 Sudeste 0 -- -- 85
2020-01-09 22:00:00 5.2 4 Sudoeste 9 Sudoeste 0 -- -- 85
2020-01-09 21:00:00 5.8 5 Oeste 9 Oeste 0 -- -- 84
2020-01-09 20:00:00 7.1 2 Oeste 7 Oeste 0 -- -- 76
2020-01-09 19:00:00 8.2 4 Sur 12 Sudeste 0 -- -- 79
2020-01-09 18:00:00 11.3 0 Calma 7 Sudoeste 0 -- -- 59
2020-01-09 17:00:00 13.8 4 Sudoeste 9 Oeste 0 -- -- 55
2020-01-09 16:00:00 13.7 0 Calma 10 Norte 0 -- -- 57
2020-01-09 15:00:00 11.8 6 Noroeste 14 Nordeste 0 -- -- 64
2020-01-09 14:00:00 12.1 3 Norte 9 Sudeste 0 -- -- 63
2020-01-09 13:00:00 11.1 2 Sur 11 Sudeste 0 -- -- 65
2020-01-09 12:00:00 8.1 3 Norte 12 Noroeste 0 -- -- 76
2020-01-09 11:00:00 6.6 2 Sudoeste 4 Sudoeste 0 -- -- 79
2020-01-09 10:00:00 2.6 0 Calma 4 Oeste 0 -- -- 95
2020-01-09 09:00:00 1 0 Calma 4 Sudeste 0 -- -- 93
2020-01-09 08:00:00 2.4 3 Sudeste 11 Sur 0 -- -- 92
2020-01-09 07:00:00 3.6 5 Sur 11 Sudeste 0 -- -- 89
2020-01-09 06:00:00 4.1 4 Sur 13 Sudeste 0 -- -- 88
2020-01-09 05:00:00 4.8 5 Sur 11 Sudeste 0 -- -- 86
2020-01-09 04:00:00 4.7 0 Calma 12 Este 0 -- -- 85
2020-01-09 03:00:00 4.8 0 Calma 6 Sudeste 0 -- -- 88
2020-01-09 02:00:00 5.1 3 Sudeste 11 Sur 0 -- -- 88
2020-01-09 01:00:00 5.7 7 Sur 24 Sudeste 0 -- -- 87
2020-01-09 00:00:00 6.5 10 Sur 22 Sudeste 0 -- -- 85
2020-01-08 23:00:00 7.1 6 Sudeste 14 Sur 0 -- -- 79
2020-01-08 22:00:00 8.3 6 Sudeste 16 Sudeste 0 -- -- 66
2020-01-08 21:00:00 7.7 3 Sudeste 10 Sudeste 0 -- -- 66
2020-01-08 20:00:00 8 2 Sur 8 Sur 0 -- -- 66
2020-01-08 19:00:00 10.2 3 Sur 8 Sur 0 -- -- 57
2020-01-08 18:00:00 12.1 3 Sur 11 Sudeste 0 -- -- 47
2020-01-08 17:00:00 16.2 6 Sudeste 14 Sudeste 0 -- -- 32
2020-01-08 16:00:00 16.8 5 Sudeste 13 Sudeste 0 -- -- 40
2020-01-08 15:00:00 16.1 2 Norte 5 Este 0 -- -- 46
2020-01-08 14:00:00 14.7 2 Norte 8 Nordeste 0 -- -- 49
2020-01-08 13:00:00 14.1 3 Nordeste 6 Nordeste 0 -- -- 45
2020-01-08 12:00:00 12.4 2 Nordeste 4 Este 0 -- -- 50
2020-01-08 11:00:00 9 0 Calma 8 Sur 0 -- -- 65
2020-01-08 10:00:00 2.6 3 Sur 8 Sur 0 -- -- 81
2020-01-08 09:00:00 0.2 3 Sur 7 Sur 0 -- -- 86
2020-01-08 08:00:00 0.1 2 Sur 8 Sur 0 -- -- 86
2020-01-08 07:00:00 0 0 Calma 4 Sur 0 -- -- 87
2020-01-08 06:00:00 0 0 Calma 8 Sur 0 -- -- 85
2020-01-08 05:00:00 0.9 4 Sur 7 Sudeste 0 -- -- 81
2020-01-08 04:00:00 0.7 3 Sur 8 Sur 0 -- -- 82
2020-01-08 03:00:00 1.1 0 Calma 4 Sur 0 -- -- 86
2020-01-08 02:00:00 2.5 3 Sudeste 7 Sudeste 0 -- -- 82
2020-01-08 01:00:00 2.9 4 Sur 5 Sudeste 0 -- -- 82
2020-01-08 00:00:00 3.9 2 Sudeste 5 Sudeste 0 -- -- 82
2020-01-07 23:00:00 4.5 4 Sudeste 8 Sudeste 0 -- -- 82
2020-01-07 22:00:00 5.3 6 Sur 9 Sudeste 0 -- -- 85
2020-01-07 21:00:00 5.5 4 Sur 8 Sudeste 0 -- -- 86
2020-01-07 20:00:00 6 0 Calma 7 Sur 0 -- -- 85
2020-01-07 19:00:00 6.8 0 Calma 5 Norte 0 -- -- 81
2020-01-07 18:00:00 10.5 4 Norte 8 Norte 0 -- -- 69
2020-01-07 17:00:00 14.8 5 Norte 8 Norte 0 -- -- 54
2020-01-07 16:00:00 15.5 5 Norte 8 Norte 0 -- -- 50
2020-01-07 15:00:00 15.9 3 Noroeste 6 Norte 0 -- -- 40
2020-01-07 14:00:00 15.8 0 Calma 5 Sur 0 -- -- 41
2020-01-07 13:00:00 13 3 Sudoeste 7 Sudeste 0 -- -- 47
2020-01-07 12:00:00 13.7 0 Calma 4 Sur 0 -- -- 53
2020-01-07 11:00:00 9.2 2 Sudeste 4 Sur 0 -- -- 66
2020-01-07 10:00:00 1.9 0 Calma 4 Sudeste 0 -- -- 92
2020-01-07 09:00:00 -0.3 0 Calma 5 Sur 0 -- -- 90
2020-01-07 08:00:00 0.5 4 Sur 8 Sur 0 -- -- 90
2020-01-07 07:00:00 -0.9 5 Sur 10 Sur 0 -- -- 92
2020-01-07 06:00:00 -0.1 2 Sur 4 Sur 0 -- -- 92
2020-01-07 05:00:00 0.1 0 Calma 6 Sur 0 -- -- 91
2020-01-07 04:00:00 0.9 3 Sudeste 8 Sudeste 0 -- -- 86
2020-01-07 03:00:00 1.4 3 Sudeste 9 Sur 0 -- -- 89
2020-01-07 02:00:00 1.5 5 Sur 9 Sur 0 -- -- 90
2020-01-07 01:00:00 1.7 2 Sur 5 Sudeste 0 -- -- 87
2020-01-07 00:00:00 3.1 2 Sudeste 5 Sur 0 -- -- 82
2020-01-06 23:00:00 2.5 4 Sudeste 9 Sur 0 -- -- 85
2020-01-06 22:00:00 3.4 5 Sur 7 Sur 0 -- -- 85
2020-01-06 21:00:00 3.5 0 Calma 8 Sur 0 -- -- 84
2020-01-06 20:00:00 5.6 2 Sur 5 Sudeste 0 -- -- 76
2020-01-06 19:00:00 7.5 0 Calma 6 Sur 0 -- -- 65
2020-01-06 18:00:00 10.8 0 Calma 4 Noroeste 0 -- -- 52
2020-01-06 17:00:00 14.7 0 Calma 7 Norte 0 -- -- 41
2020-01-06 16:00:00 13.4 5 Norte 10 Noroeste 0 -- -- 46
2020-01-06 15:00:00 13.7 4 Nordeste 9 Norte 0 -- -- 46
2020-01-06 14:00:00 12.7 2 Sur 5 Sudoeste 0 -- -- 50
2020-01-06 13:00:00 11.6 0 Calma 6 Sudeste 0 -- -- 57
2020-01-06 12:00:00 10.1 2 Sur 5 Sur 0 -- -- 63
2020-01-06 11:00:00 9.8 0 Calma 6 Sur 0 -- -- 69
2020-01-06 10:00:00 1.6 4 Sur 5 Sur 0 -- -- 92